Time;durP1;ratioP1;P1;durP2;ratioP2;P2;SDS_P1;SDS_P2;PMS_P1;PMS_P2;Temp;Humidity;BMP_temperature;BMP_pressure;BME280_temperature;BME280_humidity;BME280_pressure;Samples;Min_cycle;Max_cycle;Signal;HPM_P1;HPM_P2
2023/10/21 00:02:12;;;;;;;;;;;;;;;36.39;22.58;95902.41;5082473;28;20019;-92
2023/10/21 00:04:38;;;;;;;;;;;;;;;36.43;22.64;95913.47;5077425;28;20001;-91
2023/10/21 00:07:04;;;;;;;;;;;;;;;36.63;22.07;95921.13;5077120;28;19924;-91
2023/10/21 00:09:30;;;;;;;;;;;;;;;36.84;21.85;95938.09;5081384;28;19927;-91
2023/10/21 00:11:56;;;;;;;;;;;;;;;36.90;21.96;95927.22;5078611;28;19924;-92
2023/10/21 00:14:22;;;;;;;;;;;;;;;36.78;22.18;95926.09;5079377;28;19921;-92
2023/10/21 00:16:49;;;;;;;;;;;;;;;36.65;22.41;95938.47;5078671;28;19974;-92
2023/10/21 00:19:16;;;;;;;;;;;;;;;36.51;22.89;95935.03;5086256;28;19942;-91
2023/10/21 00:21:42;;;;;;;;;;;;;;;36.22;23.92;95927.94;5074515;28;19962;-90
2023/10/21 00:24:08;;;;;;;;;;;;;;;35.94;24.52;95922.31;5083397;28;19928;-91
2023/10/21 00:26:50;;;;;;;;;;;;;;;35.99;23.90;95927.09;5082899;28;20018;-91
2023/10/21 00:29:16;;;;;;;;;;;;;;;36.00;24.16;95934.34;5073309;28;19966;-92
2023/10/21 00:31:43;;;;;;;;;;;;;;;35.99;24.36;95933.56;5073980;28;19932;-91
2023/10/21 00:34:12;;;;;;;;;;;;;;;36.18;23.69;95930.38;5080382;28;19920;-91
2023/10/21 00:36:38;;;;;;;;;;;;;;;36.10;23.75;95932.47;5077798;28;19924;-92
2023/10/21 00:39:10;;;;;;;;;;;;;;;36.13;24.02;95930.59;5078376;28;19965;-92
2023/10/21 00:41:37;;;;;;;;;;;;;;;36.02;23.78;95926.72;5079290;28;19943;-92
2023/10/21 00:44:05;;;;;;;;;;;;;;;36.05;23.97;95925.59;5077932;28;20451;-91
2023/10/21 00:46:31;;;;;;;;;;;;;;;36.14;23.88;95935.72;5079693;28;19920;-91
2023/10/21 00:48:57;;;;;;;;;;;;;;;36.13;23.96;95928.47;5082177;28;19924;-91
2023/10/21 00:51:25;;;;;;;;;;;;;;;35.84;24.00;95935.59;5078893;28;19944;-91
2023/10/21 00:53:51;;;;;;;;;;;;;;;35.57;24.26;95935.09;5087759;28;19928;-91
2023/10/21 00:56:18;;;;;;;;;;;;;;;35.63;23.97;95940.66;5077927;28;19957;-92
2023/10/21 00:58:44;;;;;;;;;;;;;;;35.86;23.68;95942.28;5083008;28;19974;-91
2023/10/21 01:01:13;;;;;;;;;;;;;;;35.82;23.80;95939.03;5078917;28;19928;-92
2023/10/21 01:03:40;;;;;;;;;;;;;;;35.56;24.47;95956.44;5077895;28;19948;-91
2023/10/21 01:06:06;;;;;;;;;;;;;;;35.56;24.41;95952.81;5084679;28;20391;-91
2023/10/21 01:08:41;;;;;;;;;;;;;;;35.27;25.14;95952.81;5077033;28;19926;-92
2023/10/21 01:11:08;;;;;;;;;;;;;;;35.07;25.49;95959.34;5080316;28;19924;-91
2023/10/21 01:13:34;;;;;;;;;;;;;;;35.30;25.09;95977.38;5088476;28;19927;-92
2023/10/21 01:16:00;;;;;;;;;;;;;;;35.16;25.04;95972.31;5081063;28;20288;-91
2023/10/21 01:18:30;;;;;;;;;;;;;;;35.07;25.13;95969.97;5094646;28;19995;-91
2023/10/21 01:20:56;;;;;;;;;;;;;;;35.12;24.89;95980.47;5088960;28;19924;-91
2023/10/21 01:23:22;;;;;;;;;;;;;;;35.36;24.86;95985.75;5083019;28;19921;-91
2023/10/21 01:25:48;;;;;;;;;;;;;;;35.48;24.69;95989.84;5078260;28;20314;-91
2023/10/21 01:28:14;;;;;;;;;;;;;;;35.03;25.87;95973.19;5087345;28;19920;-91
2023/10/21 01:30:41;;;;;;;;;;;;;;;35.10;25.65;95977.44;5082805;28;20287;-91
2023/10/21 01:33:07;;;;;;;;;;;;;;;35.39;25.25;95971.16;5075688;28;19921;-90
2023/10/21 01:35:33;;;;;;;;;;;;;;;35.30;25.58;95968.03;5088701;28;19931;-91
2023/10/21 01:37:59;;;;;;;;;;;;;;;34.80;26.34;95963.66;5083750;28;20021;-91
2023/10/21 01:40:27;;;;;;;;;;;;;;;34.82;26.32;95972.44;5085396;28;19920;-92
2023/10/21 01:42:53;;;;;;;;;;;;;;;34.74;26.56;95989.47;5085418;28;19986;-91
2023/10/21 01:45:19;;;;;;;;;;;;;;;34.94;26.52;95987.16;5084358;28;20065;-91
2023/10/21 01:47:45;;;;;;;;;;;;;;;34.67;26.57;95978.78;5075151;28;19986;-91
2023/10/21 01:50:11;;;;;;;;;;;;;;;34.21;26.99;95978.84;5082077;28;20018;-91
2023/10/21 01:52:38;;;;;;;;;;;;;;;34.62;26.27;95968.25;5079588;28;19924;-92
2023/10/21 01:55:10;;;;;;;;;;;;;;;34.35;27.20;95977.47;5080503;28;19920;-91
2023/10/21 01:57:36;;;;;;;;;;;;;;;34.43;26.39;95976.22;5082062;28;20380;-91
2023/10/21 02:00:08;;;;;;;;;;;;;;;34.60;26.20;95961.59;5080040;28;19929;-91
2023/10/21 02:02:38;;;;;;;;;;;;;;;34.41;26.71;95975.25;5078923;28;20290;-91
2023/10/21 02:05:06;;;;;;;;;;;;;;;34.62;26.48;95961.78;5082214;28;19927;-90
2023/10/21 02:07:35;;;;;;;;;;;;;;;34.15;27.24;95961.88;5080849;28;20379;-91
2023/10/21 02:10:02;;;;;;;;;;;;;;;33.93;27.29;95968.84;5076321;28;19927;-91
2023/10/21 02:12:31;;;;;;;;;;;;;;;33.90;27.02;95961.38;5079133;28;19972;-91
2023/10/21 02:14:57;;;;;;;;;;;;;;;34.04;26.88;95971.44;5074429;28;19947;-91
2023/10/21 02:17:23;;;;;;;;;;;;;;;34.21;26.28;95976.00;5083754;28;19920;-91
2023/10/21 02:19:58;;;;;;;;;;;;;;;34.42;25.93;95971.84;5077517;28;19920;-91
2023/10/21 02:22:25;;;;;;;;;;;;;;;34.65;26.52;95974.94;5077241;28;19956;-92
2023/10/21 02:24:51;;;;;;;;;;;;;;;34.67;26.70;95989.41;5080130;28;19921;-91
2023/10/21 02:27:17;;;;;;;;;;;;;;;34.58;26.73;96007.75;5079849;28;19983;-92
2023/10/21 02:29:43;;;;;;;;;;;;;;;34.78;25.79;96017.63;5087573;28;19920;-92
2023/10/21 02:32:09;;;;;;;;;;;;;;;35.12;25.47;96009.78;5084545;28;20284;-91
2023/10/21 02:34:35;;;;;;;;;;;;;;;35.42;25.14;96007.13;5080462;28;20312;-91
2023/10/21 02:37:01;;;;;;;;;;;;;;;35.35;25.35;96015.66;5080647;28;19939;-91
2023/10/21 02:39:28;;;;;;;;;;;;;;;35.22;25.64;96021.44;5075392;28;19971;-91
2023/10/21 02:41:55;;;;;;;;;;;;;;;35.01;26.00;96009.28;5079373;28;19950;-90
2023/10/21 02:44:21;;;;;;;;;;;;;;;34.96;26.23;96019.50;5082835;28;20437;-90
2023/10/21 02:46:48;;;;;;;;;;;;;;;35.08;26.17;96022.88;5084680;28;20359;-91
2023/10/21 02:49:14;;;;;;;;;;;;;;;35.13;26.29;96028.41;5087848;28;19984;-91
2023/10/21 02:51:40;;;;;;;;;;;;;;;35.00;26.59;96036.25;5081399;28;19920;-91
2023/10/21 02:54:09;;;;;;;;;;;;;;;35.22;26.09;96039.31;5075332;28;19916;-91
2023/10/21 02:56:35;;;;;;;;;;;;;;;35.12;26.26;96041.16;5075854;28;19978;-91
2023/10/21 02:59:02;;;;;;;;;;;;;;;34.82;26.99;96051.50;5077438;28;19928;-92
2023/10/21 03:01:28;;;;;;;;;;;;;;;34.94;26.45;96049.91;5081782;28;19920;-91
2023/10/21 03:03:55;;;;;;;;;;;;;;;34.62;27.37;96050.94;5079283;28;19959;-92
2023/10/21 03:06:21;;;;;;;;;;;;;;;34.86;26.93;96071.88;5079896;28;20013;-92
2023/10/21 03:08:47;;;;;;;;;;;;;;;34.87;26.81;96064.88;5077695;28;19924;-92
2023/10/21 03:11:14;;;;;;;;;;;;;;;34.70;27.09;96056.72;5076053;28;19966;-92
2023/10/21 03:13:40;;;;;;;;;;;;;;;34.36;27.48;96073.78;5080459;28;19916;-92
2023/10/21 03:16:10;;;;;;;;;;;;;;;34.37;27.96;96080.28;5082701;28;19973;-91
2023/10/21 03:18:37;;;;;;;;;;;;;;;34.64;26.87;96085.34;5084433;28;20011;-91
2023/10/21 03:21:04;;;;;;;;;;;;;;;34.71;26.76;96083.91;5081712;28;19921;-91
2023/10/21 03:23:30;;;;;;;;;;;;;;;34.91;26.71;96073.84;5074235;28;19927;-91
2023/10/21 03:25:57;;;;;;;;;;;;;;;34.77;26.40;96078.06;5078159;28;20372;-92
2023/10/21 03:28:23;;;;;;;;;;;;;;;34.85;26.58;96070.34;5077219;28;20394;-91
2023/10/21 03:30:49;;;;;;;;;;;;;;;34.60;26.86;96069.91;5082363;28;19927;-91
2023/10/21 03:33:16;;;;;;;;;;;;;;;34.68;27.22;96054.41;5082092;28;19924;-91
2023/10/21 03:35:55;;;;;;;;;;;;;;;34.79;26.63;96058.31;5087756;28;19927;-92
2023/10/21 03:38:21;;;;;;;;;;;;;;;34.77;26.74;96058.13;5076358;28;19920;-91
2023/10/21 03:40:54;;;;;;;;;;;;;;;34.56;27.36;96053.16;5083528;28;19932;-91
2023/10/21 03:43:26;;;;;;;;;;;;;;;34.41;27.24;96044.41;5078744;28;19928;-91
2023/10/21 03:45:52;;;;;;;;;;;;;;;34.26;27.83;96052.78;5080316;28;19921;-91
2023/10/21 03:48:18;;;;;;;;;;;;;;;34.14;27.88;96040.13;5074550;28;19921;-91
2023/10/21 03:50:45;;;;;;;;;;;;;;;34.25;27.49;96028.47;5072606;28;19920;-91
2023/10/21 03:53:11;;;;;;;;;;;;;;;34.32;27.81;96021.31;5075639;28;19930;-91
2023/10/21 03:55:37;;;;;;;;;;;;;;;34.34;27.75;96013.75;5075562;28;19967;-91
2023/10/21 03:58:04;;;;;;;;;;;;;;;34.36;27.07;96019.66;5087182;28;19935;-91
2023/10/21 04:00:30;;;;;;;;;;;;;;;34.65;25.96;96035.59;5081981;28;19920;-91
2023/10/21 04:02:56;;;;;;;;;;;;;;;34.91;25.35;96042.47;5077054;28;19927;-91
2023/10/21 04:05:22;;;;;;;;;;;;;;;34.63;25.29;96060.25;5086424;28;19916;-91
2023/10/21 04:07:48;;;;;;;;;;;;;;;35.24;24.64;96070.19;5089937;28;20076;-91
2023/10/21 04:10:14;;;;;;;;;;;;;;;35.15;25.35;96064.97;5083179;28;20391;-90
2023/10/21 04:12:40;;;;;;;;;;;;;;;34.90;25.45;96073.06;5086164;28;19912;-90
2023/10/21 04:15:08;;;;;;;;;;;;;;;35.25;25.29;96078.16;5073446;28;19925;-90
2023/10/21 04:17:34;;;;;;;;;;;;;;;35.13;25.50;96076.16;5078581;28;19920;-91
2023/10/21 04:20:00;;;;;;;;;;;;;;;34.70;25.63;96085.97;5090534;28;19962;-90
2023/10/21 04:22:26;;;;;;;;;;;;;;;34.78;25.14;96093.84;5080082;28;19921;-89
2023/10/21 04:24:52;;;;;;;;;;;;;;;35.10;24.81;96105.81;5082017;28;19928;-90
2023/10/21 04:27:18;;;;;;;;;;;;;;;35.09;25.01;96104.28;5073415;28;19921;-90
2023/10/21 04:29:44;;;;;;;;;;;;;;;35.21;24.71;96114.09;5072822;28;19928;-90
2023/10/21 04:32:10;;;;;;;;;;;;;;;34.64;25.86;96118.78;5072562;28;19920;-90
2023/10/21 04:34:36;;;;;;;;;;;;;;;35.00;24.92;96128.31;5078479;28;19928;-90
2023/10/21 04:37:02;;;;;;;;;;;;;;;35.38;24.86;96137.25;5085250;28;19928;-90
2023/10/21 04:39:29;;;;;;;;;;;;;;;35.25;25.30;96137.31;5077014;28;19928;-90
2023/10/21 04:41:56;;;;;;;;;;;;;;;35.31;24.49;96137.97;5079415;28;19928;-91
2023/10/21 04:44:22;;;;;;;;;;;;;;;35.53;24.40;96142.34;5082624;28;20356;-90
2023/10/21 04:46:48;;;;;;;;;;;;;;;35.68;24.11;96148.97;5089496;28;19924;-91
2023/10/21 04:49:14;;;;;;;;;;;;;;;35.90;24.00;96150.44;5093674;28;19927;-91
2023/10/21 04:51:40;;;;;;;;;;;;;;;35.92;24.35;96156.34;5092317;28;19927;-91
2023/10/21 04:54:09;;;;;;;;;;;;;;;35.91;24.62;96167.03;5077739;28;20402;-90
2023/10/21 04:56:35;;;;;;;;;;;;;;;35.77;25.12;96173.38;5083433;28;19916;-90
2023/10/21 04:59:01;;;;;;;;;;;;;;;35.93;24.45;96175.03;5076356;28;19943;-90
2023/10/21 05:01:27;;;;;;;;;;;;;;;35.99;24.39;96165.00;5082524;28;19920;-90
2023/10/21 05:03:53;;;;;;;;;;;;;;;35.80;24.51;96181.59;5085417;28;19920;-91
2023/10/21 05:06:19;;;;;;;;;;;;;;;35.70;24.70;96183.44;5082554;28;19921;-90
2023/10/21 05:08:45;;;;;;;;;;;;;;;35.71;24.98;96190.66;5092596;28;19927;-90
2023/10/21 05:11:11;;;;;;;;;;;;;;;35.36;25.27;96197.75;5087684;28;19927;-90
2023/10/21 05:13:37;;;;;;;;;;;;;;;35.08;25.60;96196.91;5075570;28;19939;-90
2023/10/21 05:16:03;;;;;;;;;;;;;;;34.84;25.27;96191.47;5074966;28;20384;-90
2023/10/21 05:18:29;;;;;;;;;;;;;;;35.05;25.46;96203.72;5073352;28;19966;-90
2023/10/21 05:20:56;;;;;;;;;;;;;;;35.18;25.30;96204.41;5085898;28;19996;-90
2023/10/21 05:23:22;;;;;;;;;;;;;;;35.32;25.34;96210.84;5074488;28;20015;-90
2023/10/21 05:25:49;;;;;;;;;;;;;;;35.28;25.76;96213.28;5077033;28;19927;-89
2023/10/21 05:28:15;;;;;;;;;;;;;;;34.93;26.71;96226.00;5077357;28;19930;-90
2023/10/21 05:30:42;;;;;;;;;;;;;;;34.68;26.62;96231.19;5083283;28;20387;-91
2023/10/21 05:33:09;;;;;;;;;;;;;;;34.91;25.85;96231.47;5083174;28;20336;-90
2023/10/21 05:35:35;;;;;;;;;;;;;;;34.93;26.11;96233.78;5091926;28;19959;-90
2023/10/21 05:38:01;;;;;;;;;;;;;;;34.86;26.59;96243.78;5090752;28;19928;-91
2023/10/21 05:40:27;;;;;;;;;;;;;;;34.79;26.21;96264.41;5078469;28;20024;-90
2023/10/21 05:42:53;;;;;;;;;;;;;;;35.10;26.33;96272.03;5073401;28;19970;-90
2023/10/21 05:45:19;;;;;;;;;;;;;;;35.05;26.40;96277.88;5084239;28;20316;-91
2023/10/21 05:47:45;;;;;;;;;;;;;;;35.06;26.53;96282.25;5076230;28;20015;-91
2023/10/21 05:50:11;;;;;;;;;;;;;;;35.22;25.99;96287.59;5081192;28;19920;-91
2023/10/21 05:52:37;;;;;;;;;;;;;;;34.97;26.66;96288.38;5078000;28;19928;-91
2023/10/21 05:55:05;;;;;;;;;;;;;;;34.83;26.77;96301.13;5082060;28;20376;-91
2023/10/21 05:57:37;;;;;;;;;;;;;;;34.79;26.80;96298.63;5081596;28;19993;-92
2023/10/21 06:00:05;;;;;;;;;;;;;;;34.56;26.75;96303.25;5076246;28;19925;-92
2023/10/21 06:02:34;;;;;;;;;;;;;;;34.77;26.92;96303.34;5080269;28;19932;-90
2023/10/21 06:05:05;;;;;;;;;;;;;;;35.13;26.46;96310.88;5078090;28;20383;-92
2023/10/21 06:07:31;;;;;;;;;;;;;;;35.29;26.47;96317.53;5078483;28;20451;-90
2023/10/21 06:09:58;;;;;;;;;;;;;;;35.14;26.55;96320.22;5075801;28;19989;-90
2023/10/21 06:12:24;;;;;;;;;;;;;;;35.19;26.62;96331.53;5088269;28;20419;-91
2023/10/21 06:14:51;;;;;;;;;;;;;;;35.27;26.69;96323.03;5074778;28;20269;-91
2023/10/21 06:17:17;;;;;;;;;;;;;;;35.28;26.41;96330.28;5097838;28;20297;-92
2023/10/21 06:19:46;;;;;;;;;;;;;;;35.31;26.60;96332.03;5078943;28;20382;-90
2023/10/21 06:22:13;;;;;;;;;;;;;;;35.41;26.36;96335.94;5077660;28;19920;-91
2023/10/21 06:24:39;;;;;;;;;;;;;;;35.32;26.89;96325.78;5081281;28;19927;-90
2023/10/21 06:27:07;;;;;;;;;;;;;;;34.90;27.43;96337.56;5080866;28;19927;-91
2023/10/21 06:29:33;;;;;;;;;;;;;;;34.79;27.58;96343.50;5081683;28;19928;-92
2023/10/21 06:32:00;;;;;;;;;;;;;;;34.55;27.88;96348.09;5076614;28;20403;-91
2023/10/21 06:34:26;;;;;;;;;;;;;;;34.91;27.38;96351.28;5074046;28;19928;-91
2023/10/21 06:36:53;;;;;;;;;;;;;;;35.01;27.58;96343.78;5077020;28;19975;-90
2023/10/21 06:39:20;;;;;;;;;;;;;;;35.13;26.91;96350.06;5078736;28;19990;-89
2023/10/21 06:41:52;;;;;;;;;;;;;;;34.88;27.62;96349.53;5076821;28;20338;-91
2023/10/21 06:44:18;;;;;;;;;;;;;;;34.66;28.15;96350.72;5076066;28;20376;-90
2023/10/21 06:46:45;;;;;;;;;;;;;;;34.52;28.45;96349.19;5073989;28;20015;-90
2023/10/21 06:49:11;;;;;;;;;;;;;;;34.76;27.98;96365.31;5078063;28;19960;-90
2023/10/21 06:51:37;;;;;;;;;;;;;;;34.89;27.38;96368.19;5075021;28;19938;-90
2023/10/21 06:54:03;;;;;;;;;;;;;;;35.00;26.72;96370.03;5073508;28;19963;-90
2023/10/21 06:56:29;;;;;;;;;;;;;;;35.30;25.71;96368.38;5075967;28;19932;-90
2023/10/21 06:58:58;;;;;;;;;;;;;;;35.13;26.94;96370.81;5078679;28;20015;-90
2023/10/21 07:01:24;;;;;;;;;;;;;;;35.48;26.18;96374.47;5081635;28;19997;-90
2023/10/21 07:03:53;;;;;;;;;;;;;;;35.36;26.41;96388.22;5078933;28;19921;-89
2023/10/21 07:06:20;;;;;;;;;;;;;;;35.59;25.60;96400.72;5084409;28;19924;-90
2023/10/21 07:08:47;;;;;;;;;;;;;;;36.04;25.05;96409.81;5075620;28;19920;-89
2023/10/21 07:11:13;;;;;;;;;;;;;;;35.77;25.34;96416.94;5076635;28;19942;-89
2023/10/21 07:13:39;;;;;;;;;;;;;;;35.94;25.67;96408.72;5074643;28;20007;-88
2023/10/21 07:16:06;;;;;;;;;;;;;;;36.34;24.46;96415.03;5073495;28;19920;-90
2023/10/21 07:18:32;;;;;;;;;;;;;;;36.41;25.01;96408.63;5071924;28;20359;-90
2023/10/21 07:20:59;;;;;;;;;;;;;;;36.32;26.18;96425.50;5071002;28;20415;-89
2023/10/21 07:23:25;;;;;;;;;;;;;;;36.48;25.20;96422.25;5071426;28;19927;-88
2023/10/21 07:25:51;;;;;;;;;;;;;;;36.44;25.02;96421.03;5078552;28;19916;-87
2023/10/21 07:28:18;;;;;;;;;;;;;;;36.48;24.54;96418.66;5073378;28;19924;-87
2023/10/21 07:30:44;;;;;;;;;;;;;;;36.50;25.50;96413.88;5075515;28;20384;-86
2023/10/21 07:33:10;;;;;;;;;;;;;;;36.53;25.30;96414.84;5074939;28;19939;-86
2023/10/21 07:35:36;;;;;;;;;;;;;;;36.20;24.80;96413.59;5071411;28;20368;-86
2023/10/21 07:38:03;;;;;;;;;;;;;;;36.29;24.23;96423.78;5076466;28;19932;-87
2023/10/21 07:40:29;;;;;;;;;;;;;;;36.38;23.63;96426.16;5075680;28;19924;-86
2023/10/21 07:42:56;;;;;;;;;;;;;;;36.01;24.34;96430.19;5075283;28;19954;-89
2023/10/21 07:45:22;;;;;;;;;;;;;;;35.43;24.10;96430.38;5074066;28;19924;-88
2023/10/21 07:47:48;;;;;;;;;;;;;;;35.17;24.53;96436.88;5082861;28;19924;-87
2023/10/21 07:50:14;;;;;;;;;;;;;;;35.32;24.51;96447.72;5083935;28;19920;-87
2023/10/21 07:52:40;;;;;;;;;;;;;;;35.46;24.58;96437.06;5074060;28;20701;-86
2023/10/21 07:55:06;;;;;;;;;;;;;;;35.98;23.67;96452.06;5074020;28;20003;-86
2023/10/21 07:57:32;;;;;;;;;;;;;;;36.34;23.20;96468.63;5076762;28;19920;-85
2023/10/21 07:59:59;;;;;;;;;;;;;;;36.49;23.26;96471.63;5071551;28;19963;-84
2023/10/21 08:02:26;;;;;;;;;;;;;;;36.63;23.23;96487.41;5066938;28;19924;-86
2023/10/21 08:04:52;;;;;;;;;;;;;;;36.11;23.85;96496.94;5072812;28;19935;-86
2023/10/21 08:07:19;;;;;;;;;;;;;;;36.00;24.42;96497.19;5075349;28;19951;-87
2023/10/21 08:09:45;;;;;;;;;;;;;;;35.74;24.63;96498.00;5072269;28;19928;-85
2023/10/21 08:12:11;;;;;;;;;;;;;;;35.69;25.36;96501.75;5073046;28;19932;-86
2023/10/21 08:14:40;;;;;;;;;;;;;;;34.67;26.76;96514.03;5072226;28;19927;-86
2023/10/21 08:17:07;;;;;;;;;;;;;;;34.75;26.48;96521.38;5074730;28;19928;-86
2023/10/21 08:19:34;;;;;;;;;;;;;;;35.52;25.21;96524.19;5071784;28;19920;-87
2023/10/21 08:22:03;;;;;;;;;;;;;;;35.81;25.02;96528.75;5074738;28;19921;-86
2023/10/21 08:24:31;;;;;;;;;;;;;;;36.19;25.44;96534.97;5072196;28;19934;-87
2023/10/21 08:26:57;;;;;;;;;;;;;;;36.55;24.52;96538.06;5070511;28;22335;-86
2023/10/21 08:29:23;;;;;;;;;;;;;;;36.65;25.03;96537.00;5075265;28;19974;-85
2023/10/21 08:31:49;;;;;;;;;;;;;;;37.02;24.82;96532.19;5072849;28;19957;-86
2023/10/21 08:34:15;;;;;;;;;;;;;;;36.94;25.56;96543.59;5072305;28;19920;-86
2023/10/21 08:36:42;;;;;;;;;;;;;;;37.02;25.94;96546.50;5075465;28;19976;-85
2023/10/21 08:39:09;;;;;;;;;;;;;;;37.24;25.74;96552.44;5079654;28;19919;-86
2023/10/21 08:41:38;;;;;;;;;;;;;;;37.10;25.66;96564.53;5074443;28;20017;-86
2023/10/21 08:44:05;;;;;;;;;;;;;;;36.98;26.61;96560.41;5071853;28;19920;-86
2023/10/21 08:46:35;;;;;;;;;;;;;;;36.65;27.42;96559.91;5075739;28;19920;-86
2023/10/21 08:49:04;;;;;;;;;;;;;;;36.44;26.84;96558.28;5074738;28;19927;-86
2023/10/21 08:51:31;;;;;;;;;;;;;;;36.56;27.84;96565.31;5075261;28;20011;-86
2023/10/21 08:54:03;;;;;;;;;;;;;;;36.77;26.92;96574.69;5074194;28;19974;-87
2023/10/21 08:56:30;;;;;;;;;;;;;;;36.40;27.30;96578.66;5072290;28;19920;-86
2023/10/21 08:58:56;;;;;;;;;;;;;;;36.55;26.61;96580.97;5080446;28;19916;-86
2023/10/21 09:01:25;;;;;;;;;;;;;;;36.60;26.79;96580.81;5075717;28;19967;-87
2023/10/21 09:03:51;;;;;;;;;;;;;;;35.85;25.03;96580.59;5077107;28;19928;-87
2023/10/21 09:06:20;;;;;;;;;;;;;;;36.33;25.75;96572.84;5074910;28;19924;-87
2023/10/21 09:08:49;;;;;;;;;;;;;;;36.72;28.26;96567.78;5076416;28;19990;-87
2023/10/21 09:11:19;;;;;;;;;;;;;;;37.20;26.70;96574.91;5076111;28;20338;-85
2023/10/21 09:13:47;;;;;;;;;;;;;;;37.79;24.48;96573.06;5084482;28;19925;-86
2023/10/21 09:16:23;;;;;;;;;;;;;;;37.86;25.92;96577.31;5087025;28;19920;-87
2023/10/21 09:19:15;;;;;;;;;;;;;;;38.00;24.92;96593.06;5084016;28;19973;-86
2023/10/21 09:21:43;;;;;;;;;;;;;;;38.31;22.53;96594.00;5080567;28;19928;-85
2023/10/21 09:24:20;;;;;;;;;;;;;;;37.83;24.65;96590.69;5080708;28;19920;-88
2023/10/21 09:26:47;;;;;;;;;;;;;;;37.19;24.89;96604.09;5082511;28;19920;-86
2023/10/21 09:29:22;;;;;;;;;;;;;;;37.21;24.17;96602.22;5078233;28;19928;-86
2023/10/21 09:31:52;;;;;;;;;;;;;;;37.54;23.56;96603.47;5080331;28;19929;-86
2023/10/21 09:34:31;;;;;;;;;;;;;;;37.59;23.72;96605.41;5077131;28;19924;-86
2023/10/21 09:36:59;;;;;;;;;;;;;;;37.38;23.54;96613.28;5075922;28;19928;-85
2023/10/21 09:39:29;;;;;;;;;;;;;;;36.88;23.69;96613.69;5076935;28;20265;-86
2023/10/21 09:41:55;;;;;;;;;;;;;;;37.17;24.28;96621.84;5078196;28;20405;-86
2023/10/21 09:44:21;;;;;;;;;;;;;;;36.99;23.85;96631.41;5080610;28;19930;-84
2023/10/21 09:46:49;;;;;;;;;;;;;;;36.49;24.57;96644.00;5089173;28;19924;-86
2023/10/21 09:49:19;;;;;;;;;;;;;;;36.67;24.35;96645.91;5084447;28;19920;-85
2023/10/21 09:52:04;;;;;;;;;;;;;;;37.14;24.35;96648.72;5081748;28;19920;-85
2023/10/21 09:54:30;;;;;;;;;;;;;;;37.54;23.25;96654.25;5079599;28;19927;-85
2023/10/21 09:56:57;;;;;;;;;;;;;;;37.90;24.25;96655.88;5075938;28;20300;-84
2023/10/21 09:59:24;;;;;;;;;;;;;;;38.32;23.04;96647.16;5082099;28;19920;-84
2023/10/21 10:01:52;;;;;;;;;;;;;;;38.61;22.25;96651.47;5072419;28;20296;-85
2023/10/21 10:04:19;;;;;;;;;;;;;;;38.63;21.82;96646.72;5080526;28;19931;-85
2023/10/21 10:06:54;;;;;;;;;;;;;;;38.50;21.87;96646.88;5078731;28;19924;-84
2023/10/21 10:09:22;;;;;;;;;;;;;;;38.59;23.04;96659.91;5076318;28;19920;-85
2023/10/21 10:11:49;;;;;;;;;;;;;;;38.37;22.33;96666.31;5078896;28;19978;-86
2023/10/21 10:14:16;;;;;;;;;;;;;;;38.30;23.06;96662.06;5076146;28;19916;-86
2023/10/21 10:16:45;;;;;;;;;;;;;;;38.45;22.93;96672.84;5079994;28;19924;-85
2023/10/21 10:19:12;;;;;;;;;;;;;;;38.63;21.72;96675.41;5080594;28;19920;-86
2023/10/21 10:21:41;;;;;;;;;;;;;;;38.14;22.14;96669.03;5079236;28;19930;-85
2023/10/21 10:24:07;;;;;;;;;;;;;;;37.89;22.31;96679.38;5076106;28;19955;-87
2023/10/21 10:26:36;;;;;;;;;;;;;;;38.01;22.24;96674.88;5081891;28;19932;-86
2023/10/21 10:29:25;;;;;;;;;;;;;;;38.23;22.60;96682.81;5077942;28;19927;-86
2023/10/21 10:32:11;;;;;;;;;;;;;;;37.95;22.50;96668.53;5085736;28;19924;-86
2023/10/21 10:34:48;;;;;;;;;;;;;;;38.39;23.01;96675.91;5076584;28;20008;-88
2023/10/21 10:37:24;;;;;;;;;;;;;;;38.74;23.19;96670.69;5081322;28;19975;-87
2023/10/21 10:39:50;;;;;;;;;;;;;;;38.89;21.20;96667.84;5080311;28;19920;-87
2023/10/21 10:42:16;;;;;;;;;;;;;;;38.07;21.52;96666.88;5079257;28;20394;-88
2023/10/21 10:44:43;;;;;;;;;;;;;;;38.27;23.87;96668.16;5086285;28;19920;-88
2023/10/21 10:47:09;;;;;;;;;;;;;;;38.69;22.67;96672.38;5081926;28;19978;-87
2023/10/21 10:49:57;;;;;;;;;;;;;;;39.23;22.99;96674.09;5085541;28;20359;-87
2023/10/21 10:52:27;;;;;;;;;;;;;;;39.47;20.80;96682.16;5075318;28;19943;-87
2023/10/21 10:54:53;;;;;;;;;;;;;;;39.64;22.74;96682.38;5074167;28;19921;-87
2023/10/21 10:57:20;;;;;;;;;;;;;;;39.90;22.43;96696.38;5082359;28;19930;-88
2023/10/21 10:59:47;;;;;;;;;;;;;;;39.62;21.71;96692.94;5075438;28;20403;-88
2023/10/21 11:02:14;;;;;;;;;;;;;;;39.83;22.79;96694.28;5076138;28;19990;-88
2023/10/21 11:04:40;;;;;;;;;;;;;;;39.89;22.27;96700.56;5081309;28;19938;-87
2023/10/21 11:07:09;;;;;;;;;;;;;;;39.79;20.53;96698.88;5081411;28;20411;-88
2023/10/21 11:09:35;;;;;;;;;;;;;;;39.66;23.24;96699.81;5083890;28;19928;-87
2023/10/21 11:12:01;;;;;;;;;;;;;;;39.86;22.21;96693.09;5076927;28;20390;-88
2023/10/21 11:14:27;;;;;;;;;;;;;;;39.46;21.47;96700.75;5077766;28;19955;-88
2023/10/21 11:16:55;;;;;;;;;;;;;;;39.52;22.54;96701.31;5080561;28;20437;-87
2023/10/21 11:19:22;;;;;;;;;;;;;;;39.36;21.09;96709.16;5082290;28;19966;-88
2023/10/21 11:21:48;;;;;;;;;;;;;;;38.15;21.94;96716.44;5075449;28;20374;-88
2023/10/21 11:24:15;;;;;;;;;;;;;;;37.83;21.86;96725.38;5081914;28;20011;-88
2023/10/21 11:26:43;;;;;;;;;;;;;;;38.21;22.77;96736.38;5082821;28;20268;-86
2023/10/21 11:29:09;;;;;;;;;;;;;;;38.52;22.29;96733.13;5074558;28;19924;-86
2023/10/21 11:31:35;;;;;;;;;;;;;;;38.86;22.40;96735.03;5073201;28;19921;-86
2023/10/21 11:34:09;;;;;;;;;;;;;;;38.82;21.46;96723.91;5074245;28;19928;-86
2023/10/21 11:36:36;;;;;;;;;;;;;;;38.67;21.60;96738.94;5085214;28;19959;-85
2023/10/21 11:39:04;;;;;;;;;;;;;;;38.88;21.36;96741.75;5081982;28;19928;-85
2023/10/21 11:41:31;;;;;;;;;;;;;;;39.00;20.97;96747.91;5076669;28;19946;-85
2023/10/21 11:43:57;;;;;;;;;;;;;;;39.24;21.34;96758.91;5072100;28;20380;-84
2023/10/21 11:46:23;;;;;;;;;;;;;;;39.18;21.07;96759.09;5072491;28;19973;-85
2023/10/21 11:48:52;;;;;;;;;;;;;;;39.13;20.74;96756.38;5077758;28;20368;-85
2023/10/21 11:51:18;;;;;;;;;;;;;;;38.14;21.15;96760.03;5071703;28;19920;-86
2023/10/21 11:53:46;;;;;;;;;;;;;;;37.98;21.67;96756.25;5074631;28;19928;-85
2023/10/21 12:00:39;;;;;;;;;;;;;;;37.14;22.58;96771.81;5075889;28;19931;-86
2023/10/21 12:16:02;;;;;;;;;;;;;;;37.94;21.86;96768.09;5073362;28;20056;-87
2023/10/21 12:24:33;;;;;;;;;;;;;;;37.89;22.06;96786.19;5076506;28;19973;-86
2023/10/21 12:27:01;;;;;;;;;;;;;;;37.03;22.35;96789.25;5071379;28;19939;-89
2023/10/21 12:39:47;;;;;;;;;;;;;;;37.52;22.55;96820.16;5078764;28;19924;-86
2023/10/21 12:42:27;;;;;;;;;;;;;;;36.28;23.50;96826.09;5075976;28;19920;-87
2023/10/21 12:45:01;;;;;;;;;;;;;;;35.66;24.09;96834.13;5075900;28;19963;-87
2023/10/21 12:47:28;;;;;;;;;;;;;;;35.08;24.81;96833.19;5080666;28;19923;-87
2023/10/21 12:49:57;;;;;;;;;;;;;;;35.66;24.63;96848.41;5075184;28;19927;-90
2023/10/21 12:52:23;;;;;;;;;;;;;;;36.05;24.41;96840.03;5076101;28;19927;-87
2023/10/21 12:54:51;;;;;;;;;;;;;;;36.25;23.66;96849.28;5082488;28;19920;-87
2023/10/21 12:57:17;;;;;;;;;;;;;;;36.01;23.87;96841.66;5078657;28;19916;-88
2023/10/21 12:59:43;;;;;;;;;;;;;;;35.73;24.62;96844.91;5078591;28;19969;-87
2023/10/21 13:02:09;;;;;;;;;;;;;;;36.47;23.67;96861.13;5079639;28;20389;-86
2023/10/21 13:04:37;;;;;;;;;;;;;;;36.96;23.15;96854.97;5081532;28;19981;-87
2023/10/21 13:07:06;;;;;;;;;;;;;;;36.35;23.56;96865.47;5080761;28;19920;-86
2023/10/21 13:09:32;;;;;;;;;;;;;;;36.69;23.42;96871.34;5077930;28;19932;-87
2023/10/21 13:12:00;;;;;;;;;;;;;;;37.25;22.77;96859.56;5081768;28;20013;-87
2023/10/21 13:14:29;;;;;;;;;;;;;;;36.38;23.24;96878.69;5087143;28;19934;-87
2023/10/21 13:16:55;;;;;;;;;;;;;;;34.37;26.14;96881.13;5078983;28;19966;-87
2023/10/21 13:19:22;;;;;;;;;;;;;;;35.52;24.34;96889.66;5079301;28;19926;-87
2023/10/21 13:21:48;;;;;;;;;;;;;;;35.23;24.79;96885.63;5080473;28;19924;-87
2023/10/21 13:24:14;;;;;;;;;;;;;;;35.65;24.07;96894.66;5078676;28;19927;-88